»·PEaware :: N973LW O43-KRNO

N973LW :: O43-KRNO

FLIGHT INFORMATION

Flight Status: Arrived
Operator: Privately registered:
United States
More flights under this callsign
Pilot: Anonymous 26214 (26214)
Aircraft: CESSNA 172 SKYHAWK
(C172)
More flights by this aircraft type
Origin: O43 Yerington Mun
United States
Destination: KRNO Reno/Tahoe Intl
United States
More flights between these airports :: More routes between these airports
Route: RYANN CHIME
File this flight plan on PilotEdge
Remarks:
Altitude:
(Current/Filed)
10,500ft
Speed:
(Current/Filed)
140kts
Departed: 09-Sep-19 01:10 PM
Arrived: 09-Sep-19 01:45 PM
Distance/Time
Traveled:
41nm/0:35
Distance/Time
To Go:
Arrived

Flight Plot

Page will automatically refresh every two minutes.

Flight plan parsing failed; only flown route is shown


Map Options




Map Legend


Flown Route
Filed Route
Departure Airport
Arrival Airport
Navaid (VOR, NDB)
Fix

Horizontal Profiles

Position Reports

Time Latitude Longitude Heading Altitude Ground
Speed
09-Sep-19 12:52 38.999558 -119.161733 210 4377ft 0kts
09-Sep-19 12:53 38.999558 -119.161733 210 4377ft 0kts
09-Sep-19 12:54 38.999558 -119.161733 210 4377ft 0kts
09-Sep-19 12:55 38.999558 -119.161733 210 4377ft 0kts
09-Sep-19 12:56 38.999558 -119.161733 210 4377ft 0kts
09-Sep-19 12:57 38.999558 -119.161733 211 4377ft 0kts
09-Sep-19 12:58 38.999558 -119.161733 210 4377ft 0kts
09-Sep-19 12:59 38.999558 -119.161733 210 4377ft 0kts
09-Sep-19 13:00 38.999558 -119.161733 210 4377ft 0kts
09-Sep-19 13:01 38.998941 -119.162050 167 4377ft 0kts
09-Sep-19 13:02 38.998941 -119.162050 167 4377ft 0kts
09-Sep-19 13:03 38.998941 -119.162050 167 4377ft 0kts
09-Sep-19 13:04 38.998941 -119.162050 167 4377ft 0kts
09-Sep-19 13:05 38.998941 -119.162050 167 4377ft 0kts
09-Sep-19 13:06 38.998937 -119.162049 170 4377ft 0kts
09-Sep-19 13:07 38.998937 -119.162049 170 4377ft 0kts
09-Sep-19 13:08 38.998747 -119.161999 132 4377ft 0kts
09-Sep-19 13:09 38.999897 -119.160457 25 4377ft 46kts
09-Sep-19 13:10 39.018411 -119.147446 23 4874ft 82kts
09-Sep-19 13:11 39.035536 -119.129919 40 5482ft 78kts
09-Sep-19 13:12 39.051803 -119.140355 355 6110ft 85kts
09-Sep-19 13:13 39.075898 -119.135407 16 6792ft 89kts
09-Sep-19 13:14 39.097982 -119.140556 314 7332ft 89kts
09-Sep-19 13:15 39.114695 -119.164553 313 7870ft 91kts
09-Sep-19 13:16 39.136108 -119.182147 327 8448ft 92kts
09-Sep-19 13:17 39.158219 -119.198402 337 8971ft 93kts
09-Sep-19 13:18 39.177551 -119.219589 307 9447ft 92kts
09-Sep-19 13:19 39.196345 -119.242565 318 9901ft 94kts
09-Sep-19 13:20 39.216451 -119.263491 308 10343ft 91kts
09-Sep-19 13:21 39.235790 -119.286044 317 10630ft 99kts
09-Sep-19 13:22 39.262375 -119.305028 331 10656ft 113kts
09-Sep-19 13:23 39.287279 -119.329945 313 10545ft 121kts
09-Sep-19 13:24 39.310600 -119.357565 315 10498ft 107kts
09-Sep-19 13:25 39.328916 -119.386207 296 10472ft 107kts
09-Sep-19 13:26 39.346686 -119.414978 309 10540ft 105kts
09-Sep-19 13:27 39.367385 -119.442372 312 10508ft 107kts
09-Sep-19 13:28 39.389538 -119.469335 309 10417ft 111kts
09-Sep-19 13:29 39.411946 -119.496853 313 10313ft 112kts
09-Sep-19 13:30 39.436294 -119.522819 319 10218ft 113kts
09-Sep-19 13:31 39.463650 -119.543654 334 10108ft 116kts
09-Sep-19 13:32 39.494142 -119.557817 342 10002ft 117kts
09-Sep-19 13:33 39.526472 -119.564412 353 9903ft 117kts
09-Sep-19 13:34 39.558744 -119.567861 338 9993ft 114kts
09-Sep-19 13:35 39.586595 -119.586171 324 10055ft 111kts
09-Sep-19 13:36 39.614640 -119.604473 326 10146ft 113kts
09-Sep-19 13:37 39.611637 -119.632347 178 9761ft 121kts
09-Sep-19 13:38 39.591191 -119.656944 247 9061ft 112kts
09-Sep-19 13:39 39.583864 -119.697357 255 7767ft 120kts
09-Sep-19 13:40 39.570093 -119.735441 243 6592ft 116kts
09-Sep-19 13:41 39.549058 -119.761803 210 5550ft 100kts
09-Sep-19 13:42 39.527535 -119.769553 173 4827ft 69kts
09-Sep-19 13:43 39.510237 -119.769307 173 4423ft 45kts
09-Sep-19 13:44 39.504724 -119.769077 186 4406ft 22kts
09-Sep-19 13:45 39.502839 -119.767890 86 4403ft 1kts
09-Sep-19 13:46 39.502845 -119.766193 85 4403ft 0kts
09-Sep-19 13:47 39.502850 -119.765915 91 4403ft 0kts
09-Sep-19 13:48 39.501687 -119.765779 176 4403ft 22kts
09-Sep-19 13:49 39.501457 -119.764524 355 4403ft 0kts
09-Sep-19 13:50 39.501457 -119.764524 355 4403ft 0kts

Navigation Log

Ident Type
Flight plan parsing failed, navigation log unavailable